createdAt,value
2023-01-27T00:39:58.932Z,3.7
2023-01-27T01:20:00.629Z,3.3
2023-01-27T01:50:02.637Z,3
2023-01-27T02:00:02.958Z,2.9
2023-01-27T02:10:03.016Z,3
2023-01-27T02:20:03.449Z,2.8
2023-01-27T02:30:03.549Z,2.8
2023-01-27T02:40:04.232Z,2.8
2023-01-27T03:10:04.985Z,2.6
2023-01-27T03:20:05.671Z,2.6
2023-01-27T03:30:06.495Z,2.6
2023-01-27T03:40:06.758Z,2.6
2023-01-27T03:50:06.854Z,2.6
2023-01-27T04:00:07.377Z,2.6
2023-01-27T04:10:07.892Z,2.7
2023-01-27T04:20:07.958Z,2.7
2023-01-27T04:40:08.783Z,2.8
2023-01-27T05:40:12.924Z,3.2
2023-01-27T05:50:13.249Z,3.3
2023-01-27T06:00:13.542Z,3.3
2023-01-27T06:10:14.152Z,3.4
2023-01-27T06:30:15.111Z,3.4
2023-01-27T06:40:15.859Z,3.6
2023-01-27T06:50:16.695Z,3.5
2023-01-27T07:00:17.227Z,3.6
2023-01-27T07:10:17.510Z,3.5
2023-01-27T07:20:18.061Z,3.4
2023-01-27T07:30:18.862Z,3.4
2023-01-27T08:00:20.428Z,3.6
2023-01-27T08:10:21.345Z,3.7
2023-01-27T08:20:21.762Z,3.8
2023-01-27T08:30:22.760Z,3.9
2023-01-27T08:40:23.692Z,3.9
2023-01-27T08:50:24.565Z,4
2023-01-27T09:10:26.161Z,4.1
2023-01-27T09:20:26.818Z,4.1
2023-01-27T09:40:27.576Z,4.2
2023-01-27T10:10:30.081Z,4.2
2023-01-27T10:20:30.580Z,4.2
2023-01-27T10:20:52.453Z,4.2
2023-01-27T10:40:36.997Z,4.2
2023-01-27T13:30:46.325Z,4.6
2023-01-27T13:50:46.963Z,4.4
2023-01-27T14:00:47.863Z,4.4
2023-01-27T14:20:48.793Z,4.4
2023-01-27T15:10:51.545Z,4.6
2023-01-27T15:20:51.970Z,4.5
2023-01-27T15:30:52.782Z,4.5
2023-01-27T15:40:53.101Z,4.4
2023-01-27T15:50:53.145Z,4.3
2023-01-27T16:00:54.143Z,4.4
2023-01-27T16:20:55.096Z,4.2
2023-01-27T16:40:56.278Z,4.1
2023-01-27T17:00:56.642Z,4
2023-01-27T17:10:56.861Z,4
2023-01-27T17:20:56.950Z,3.9
2023-01-27T17:30:57.960Z,3.9
2023-01-27T17:40:58.821Z,3.8
2023-01-27T18:01:00.322Z,3.7
2023-01-27T18:21:01.280Z,3.6
2023-01-27T18:41:01.746Z,3.6
2023-01-27T18:51:02.213Z,3.6
2023-01-27T19:01:03.205Z,3.5
2023-01-27T19:11:03.280Z,3.5
2023-01-27T19:21:04.184Z,3.4
2023-01-27T19:41:05.345Z,3.5
2023-01-27T19:51:06.295Z,3.5
2023-01-27T20:01:06.822Z,3.4
2023-01-27T20:11:07.430Z,3.5
2023-01-27T20:21:08.306Z,3.4
2023-01-27T20:31:08.629Z,3.4
2023-01-27T20:41:09.483Z,3.3
2023-01-27T20:51:09.752Z,3.3
2023-01-27T21:01:10.516Z,3.2
2023-01-27T21:11:10.601Z,3.1
2023-01-27T21:21:11.567Z,3.1
2023-01-27T21:31:12.124Z,3
2023-01-27T21:41:12.562Z,3
2023-01-27T21:51:13.395Z,3
2023-01-27T22:01:13.816Z,3
2023-01-27T22:11:14.394Z,2.8
2023-01-27T22:21:14.951Z,2.6
2023-01-27T22:41:16.051Z,2.4
2023-01-27T22:51:16.397Z,2.4
2023-01-27T23:01:16.708Z,2.4
2023-01-27T23:31:18.935Z,2.3
2023-01-27T23:51:20.329Z,2.2
